Time;durP1;ratioP1;P1;durP2;ratioP2;P2;SDS_P1;SDS_P2;PMS_P1;PMS_P2;Temp;Humidity;BMP_temperature;BMP_pressure;BME280_temperature;BME280_humidity;BME280_pressure;Samples;Min_cycle;Max_cycle;Signal;HPM_P1;HPM_P2
2023/10/27 00:00:07;;;;;;;5.35;4.07;;;;;;;11.77;100.00;98392.38;5054195;28;20075;-83
2023/10/27 00:02:39;;;;;;;9.85;4.20;;;;;;;11.77;100.00;98388.72;5054930;28;20024;-82
2023/10/27 00:05:22;;;;;;;6.65;4.13;;;;;;;11.69;100.00;98382.91;5037686;28;20025;-83
2023/10/27 00:07:49;;;;;;;8.35;5.22;;;;;;;11.75;100.00;98383.56;5054446;28;20543;-83
2023/10/27 00:10:20;;;;;;;7.07;4.75;;;;;;;11.79;100.00;98381.16;5056182;28;20414;-85
2023/10/27 00:12:46;;;;;;;6.95;4.55;;;;;;;11.81;100.00;98386.34;5057703;28;20025;-84
2023/10/27 00:15:12;;;;;;;8.30;4.40;;;;;;;11.82;100.00;98382.13;5055718;28;20132;-82
2023/10/27 00:17:39;;;;;;;8.05;4.28;;;;;;;11.80;100.00;98374.13;5057273;28;20140;-84
2023/10/27 00:20:07;;;;;;;6.22;3.83;;;;;;;11.86;100.00;98376.88;5059344;28;20035;-83
2023/10/27 00:22:35;;;;;;;11.15;4.80;;;;;;;11.88;100.00;98370.59;5059000;28;20017;-81
2023/10/27 00:25:02;;;;;;;9.18;4.22;;;;;;;11.94;100.00;98371.25;5056989;28;20028;-83
2023/10/27 00:27:35;;;;;;;8.35;4.63;;;;;;;11.86;100.00;98353.97;5041024;28;20029;-81
2023/10/27 00:30:03;;;;;;;9.65;4.80;;;;;;;11.76;100.00;98350.00;5058254;28;20105;-82
2023/10/27 00:32:30;;;;;;;11.15;5.28;;;;;;;11.76;100.00;98355.72;5059861;28;20024;-83
2023/10/27 00:34:55;;;;;;;7.93;5.25;;;;;;;11.81;100.00;98374.88;5061480;28;20025;-81
2023/10/27 00:37:24;;;;;;;11.55;5.38;;;;;;;11.75;100.00;98368.50;5061174;28;20051;-83
2023/10/27 00:39:50;;;;;;;8.70;4.80;;;;;;;11.74;100.00;98370.59;5063477;28;20024;-83
2023/10/27 00:42:16;;;;;;;7.82;4.30;;;;;;;11.55;100.00;98355.59;5061391;28;20021;-84
2023/10/27 00:44:43;;;;;;;10.55;5.43;;;;;;;11.65;100.00;98378.81;5061988;28;20063;-82
2023/10/27 00:47:09;;;;;;;10.35;4.63;;;;;;;11.60;100.00;98377.59;5057420;28;20508;-82
2023/10/27 00:49:38;;;;;;;8.65;4.82;;;;;;;11.56;100.00;98365.72;5041543;28;20083;-84
2023/10/27 00:52:11;;;;;;;6.95;4.15;;;;;;;11.58;100.00;98365.94;5058064;28;20469;-84
2023/10/27 00:54:38;;;;;;;7.15;4.38;;;;;;;11.57;100.00;98364.38;5056699;28;20060;-83
2023/10/27 00:57:06;;;;;;;7.30;4.78;;;;;;;11.54;100.00;98364.72;5054808;28;20462;-83
2023/10/27 00:59:32;;;;;;;10.13;5.10;;;;;;;11.47;100.00;98356.78;5054062;28;20469;-82
2023/10/27 01:01:59;;;;;;;11.63;4.82;;;;;;;11.28;100.00;98342.53;5056328;28;20111;-83
2023/10/27 01:04:25;;;;;;;9.00;4.78;;;;;;;11.26;100.00;98345.19;5055324;28;20487;-82
2023/10/27 01:06:52;;;;;;;7.55;5.35;;;;;;;11.11;100.00;98331.41;5054860;28;20025;-81
2023/10/27 01:09:19;;;;;;;11.27;5.80;;;;;;;11.08;100.00;98334.53;5054512;28;20474;-82
2023/10/27 01:11:46;;;;;;;8.52;5.88;;;;;;;11.01;100.00;98332.31;5054693;28;20029;-82
2023/10/27 01:14:11;;;;;;;6.85;4.70;;;;;;;10.95;100.00;98326.69;5053806;28;20060;-81
2023/10/27 01:16:40;;;;;;;14.15;6.85;;;;;;;10.87;100.00;98318.00;5020402;28;20059;-82
2023/10/27 01:19:07;;;;;;;14.32;7.18;;;;;;;10.73;100.00;98312.78;5060074;28;20065;-80
2023/10/27 01:21:32;;;;;;;12.05;6.90;;;;;;;10.73;100.00;98310.66;5074243;28;20025;-83
2023/10/27 01:24:12;;;;;;;11.77;6.82;;;;;;;10.70;100.00;98316.69;5073353;28;20052;-82
2023/10/27 01:26:38;;;;;;;13.27;6.88;;;;;;;10.56;100.00;98307.31;5074971;28;20029;-82
2023/10/27 01:29:05;;;;;;;17.92;7.38;;;;;;;10.51;100.00;98322.44;5074394;28;20059;-83
2023/10/27 01:31:30;;;;;;;15.50;6.13;;;;;;;10.26;100.00;98284.63;5076841;28;20025;-81
2023/10/27 01:33:57;;;;;;;11.70;6.40;;;;;;;10.14;100.00;98285.34;5072206;28;20036;-84
2023/10/27 01:36:23;;;;;;;11.40;6.68;;;;;;;10.22;100.00;98314.78;5059886;28;20481;-82
2023/10/27 01:38:53;;;;;;;9.85;6.15;;;;;;;10.13;100.00;98315.19;5055424;28;20132;-83
2023/10/27 01:41:27;;;;;;;12.77;7.20;;;;;;;10.00;100.00;98299.50;5053982;28;20060;-82
2023/10/27 01:43:54;;;;;;;12.45;6.65;;;;;;;9.66;100.00;98255.56;5054085;28;20096;-81
2023/10/27 01:46:23;;;;;;;11.20;6.45;;;;;;;9.84;100.00;98294.75;5053194;28;20436;-82
2023/10/27 01:49:00;;;;;;;11.80;6.68;;;;;;;9.52;100.00;98266.09;5054446;28;20071;-82
2023/10/27 01:51:26;;;;;;;13.88;6.50;;;;;;;9.48;100.00;98270.56;5052428;28;20029;-83
2023/10/27 01:53:53;;;;;;;11.73;6.35;;;;;;;9.52;100.00;98290.97;5054179;28;20427;-84
2023/10/27 01:56:19;;;;;;;10.77;6.53;;;;;;;9.47;100.00;98292.59;5053155;28;20470;-84
2023/10/27 01:58:46;;;;;;;15.18;7.60;;;;;;;9.34;100.00;98286.78;5053408;28;20055;-82
2023/10/27 02:01:14;;;;;;;10.00;6.13;;;;;;;9.32;100.00;98280.81;5068629;28;20083;-83
2023/10/27 02:03:42;;;;;;;12.15;6.53;;;;;;;9.33;100.00;98298.69;5035585;28;20532;-84
2023/10/27 02:06:08;;;;;;;9.32;5.80;;;;;;;9.25;100.00;98293.56;5051689;28;20354;-82
2023/10/27 02:08:35;;;;;;;12.20;6.60;;;;;;;9.15;100.00;98286.69;5037261;28;20066;-83
2023/10/27 02:11:10;;;;;;;12.60;6.97;;;;;;;9.14;100.00;98285.16;5058351;28;20047;-83
2023/10/27 02:13:35;;;;;;;12.10;5.95;;;;;;;9.10;100.00;98281.06;5058108;28;20021;-83
2023/10/27 02:16:06;;;;;;;10.38;5.93;;;;;;;9.04;100.00;98281.09;5052277;28;20048;-82
2023/10/27 02:18:31;;;;;;;11.45;6.68;;;;;;;8.92;100.00;98270.34;5054071;28;20481;-82
2023/10/27 02:20:58;;;;;;;15.32;6.78;;;;;;;8.91;100.00;98285.88;5054456;28;20024;-82
2023/10/27 02:23:25;;;;;;;13.85;7.00;;;;;;;8.83;100.00;98269.38;5056614;28;20044;-85
2023/10/27 02:25:54;;;;;;;14.52;7.35;;;;;;;8.88;100.00;98286.94;5057105;28;20025;-83
2023/10/27 02:28:21;;;;;;;11.90;6.28;;;;;;;8.82;100.00;98284.13;5055358;28;20053;-83
2023/10/27 02:30:48;;;;;;;10.98;6.65;;;;;;;8.82;100.00;98292.69;5056697;28;20414;-84
2023/10/27 02:33:15;;;;;;;14.10;6.70;;;;;;;8.80;100.00;98287.50;5056094;28;20033;-83
2023/10/27 02:35:41;;;;;;;15.82;9.63;;;;;;;8.71;100.00;98285.00;5056385;28;20025;-84
2023/10/27 02:38:08;;;;;;;11.60;8.30;;;;;;;8.78;100.00;98295.03;5057037;28;20099;-83
2023/10/27 02:40:40;;;;;;;14.65;8.15;;;;;;;8.63;100.00;98274.72;5056821;28;20028;-82
2023/10/27 02:43:06;;;;;;;15.05;8.10;;;;;;;8.71;100.00;98290.69;5055097;28;20065;-83
2023/10/27 02:45:33;;;;;;;15.23;7.55;;;;;;;8.65;100.00;98289.22;5056614;28;20025;-82
2023/10/27 02:47:58;;;;;;;13.27;7.60;;;;;;;8.69;100.00;98295.38;5056808;28;20053;-81
2023/10/27 02:50:24;;;;;;;15.38;7.97;;;;;;;8.67;100.00;98300.81;5051503;28;20028;-81
2023/10/27 02:52:50;;;;;;;14.63;7.53;;;;;;;8.56;100.00;98281.75;5056020;28;20029;-81
2023/10/27 02:55:18;;;;;;;14.90;7.72;;;;;;;8.54;100.00;98287.22;5055654;28;20028;-82
2023/10/27 02:57:47;;;;;;;11.63;6.80;;;;;;;8.67;100.00;98309.34;5056247;28;20025;-82
2023/10/27 03:00:13;;;;;;;14.52;7.85;;;;;;;8.59;100.00;98291.31;5055211;28;20021;-81
2023/10/27 03:02:40;;;;;;;12.20;7.32;;;;;;;8.65;100.00;98306.28;5056072;28;20485;-82
2023/10/27 03:05:08;;;;;;;13.93;7.45;;;;;;;8.65;100.00;98309.13;5055008;28;20140;-82
2023/10/27 03:07:34;;;;;;;15.93;8.15;;;;;;;8.65;100.00;98304.22;5055367;28;20385;-82
2023/10/27 03:09:59;;;;;;;13.93;8.38;;;;;;;8.66;100.00;98299.28;5038876;28;20483;-83
2023/10/27 03:12:25;;;;;;;15.82;7.55;;;;;;;8.57;100.00;98282.53;5056001;28;20082;-83
2023/10/27 03:14:51;;;;;;;15.82;8.10;;;;;;;8.61;100.00;98288.69;5056961;28;20048;-82
2023/10/27 03:17:16;;;;;;;11.57;7.60;;;;;;;8.51;100.00;98274.00;5056254;28;20028;-83
2023/10/27 03:19:43;;;;;;;18.55;7.80;;;;;;;8.65;100.00;98307.06;5071574;28;20025;-82
2023/10/27 03:22:10;;;;;;;16.88;7.82;;;;;;;8.66;100.00;98302.88;5055095;28;20048;-82
2023/10/27 03:24:35;;;;;;;12.05;7.55;;;;;;;8.65;100.00;98300.59;5056042;28;20032;-84
2023/10/27 03:27:02;;;;;;;15.65;8.57;;;;;;;8.64;100.00;98307.59;5054462;28;20330;-83
2023/10/27 03:29:29;;;;;;;11.23;7.03;;;;;;;8.62;100.00;98304.47;5055753;28;20064;-82
2023/10/27 03:31:55;;;;;;;12.93;7.50;;;;;;;8.61;100.00;98305.78;5054713;28;20036;-82
2023/10/27 03:34:21;;;;;;;16.02;7.47;;;;;;;8.61;100.00;98300.09;5055858;28;20075;-82
2023/10/27 03:36:46;;;;;;;12.60;7.63;;;;;;;8.58;100.00;98287.69;5037426;28;20020;-83
2023/10/27 03:39:14;;;;;;;14.45;7.53;;;;;;;8.60;100.00;98299.34;5055109;28;20063;-82
2023/10/27 03:41:42;;;;;;;15.50;7.50;;;;;;;8.61;100.00;98291.53;5053937;28;20036;-83
2023/10/27 03:44:07;;;;;;;13.52;6.95;;;;;;;8.48;100.00;98275.09;5054362;28;20124;-83
2023/10/27 03:46:33;;;;;;;14.32;8.27;;;;;;;8.59;100.00;98289.25;5054780;28;20123;-82
2023/10/27 03:48:58;;;;;;;15.68;7.47;;;;;;;8.48;100.00;98271.47;5053772;28;20056;-83
2023/10/27 03:51:26;;;;;;;11.20;6.90;;;;;;;8.56;100.00;98284.59;5054425;28;20040;-82
2023/10/27 03:53:54;;;;;;;11.00;6.88;;;;;;;8.35;100.00;98255.78;5053514;28;20037;-83
2023/10/27 03:56:22;;;;;;;14.52;7.40;;;;;;;8.49;100.00;98285.19;5037483;28;20021;-83
2023/10/27 03:58:49;;;;;;;17.33;7.50;;;;;;;8.52;100.00;98289.81;5055456;28;20385;-82
2023/10/27 04:01:15;;;;;;;17.58;9.38;;;;;;;8.51;100.00;98290.34;5055663;28;20032;-82
2023/10/27 04:03:42;;;;;;;12.35;7.55;;;;;;;8.43;100.00;98286.50;5065350;28;20047;-81
2023/10/27 04:06:08;;;;;;;12.80;6.70;;;;;;;8.36;100.00;98274.38;5067954;28;20044;-83
2023/10/27 04:08:33;;;;;;;13.00;7.10;;;;;;;8.35;100.00;98272.09;5066678;28;20037;-84
2023/10/27 04:11:00;;;;;;;16.55;7.18;;;;;;;8.45;100.00;98290.38;5069988;28;20026;-81
2023/10/27 04:13:26;;;;;;;12.68;6.85;;;;;;;8.34;100.00;98259.16;5060200;28;20377;-83
2023/10/27 04:15:53;;;;;;;17.63;8.30;;;;;;;8.30;100.00;98256.59;5054975;28;20118;-83
2023/10/27 04:18:19;;;;;;;23.25;8.68;;;;;;;8.38;100.00;98271.78;5053468;28;20485;-83
2023/10/27 04:20:45;;;;;;;24.77;8.70;;;;;;;8.35;100.00;98255.78;5053298;28;20047;-82
2023/10/27 04:23:13;;;;;;;14.10;8.73;;;;;;;8.42;100.00;98268.66;5054458;28;20032;-83
2023/10/27 04:25:39;;;;;;;14.45;9.35;;;;;;;8.43;100.00;98275.13;5054942;28;20013;-86
2023/10/27 04:28:07;;;;;;;15.73;8.73;;;;;;;8.24;100.00;98253.00;5054303;28;20029;-86
2023/10/27 04:30:36;;;;;;;14.05;8.70;;;;;;;8.39;100.00;98269.72;5057471;28;20408;-86
2023/10/27 04:33:06;;;;;;;18.40;9.15;;;;;;;8.24;100.00;98250.16;5055021;28;20431;-86
2023/10/27 04:35:41;;;;;;;17.48;9.02;;;;;;;8.20;100.00;98243.97;5056628;28;20116;-87
2023/10/27 04:38:07;;;;;;;16.70;9.57;;;;;;;8.33;100.00;98269.75;5055619;28;20174;-86
2023/10/27 04:40:34;;;;;;;17.15;8.00;;;;;;;8.31;100.00;98275.19;5055637;28;20021;-87
2023/10/27 04:43:03;;;;;;;18.88;9.15;;;;;;;8.12;100.00;98236.50;5057826;28;20485;-87
2023/10/27 04:45:29;;;;;;;20.02;9.20;;;;;;;8.38;100.00;98279.56;5055625;28;20059;-89
2023/10/27 04:47:55;;;;;;;14.45;9.45;;;;;;;8.23;100.00;98248.59;5055812;28;20048;-93
2023/10/27 04:50:22;;;;;;;24.10;11.50;;;;;;;8.36;100.00;98271.53;5055981;28;20462;-86
2023/10/27 04:52:49;;;;;;;26.27;15.35;;;;;;;8.33;100.00;98277.50;5055503;28;20123;-87
2023/10/27 04:55:16;;;;;;;16.13;8.18;;;;;;;8.24;100.00;98264.38;5057344;28;20025;-93
2023/10/27 04:57:42;;;;;;;14.75;8.50;;;;;;;8.22;100.00;98261.28;5053767;28;20044;-90
2023/10/27 05:00:09;;;;;;;13.65;8.48;;;;;;;8.28;100.00;98264.88;5056524;28;20064;-86
2023/10/27 05:02:35;;;;;;;12.40;7.60;;;;;;;8.29;100.00;98257.88;5057006;28;20032;-89
2023/10/27 05:05:00;;;;;;;17.75;8.65;;;;;;;8.25;100.00;98259.47;5056619;28;20078;-87
2023/10/27 05:07:29;;;;;;;14.45;8.68;;;;;;;8.28;100.00;98250.66;5053421;28;20044;-87
2023/10/27 05:09:55;;;;;;;17.42;9.88;;;;;;;8.14;100.00;98229.00;5053658;28;20028;-82
2023/10/27 05:12:23;;;;;;;18.98;9.57;;;;;;;8.28;100.00;98249.88;5053556;28;20111;-88
2023/10/27 05:14:54;;;;;;;16.75;9.05;;;;;;;8.27;100.00;98246.25;5052723;28;20037;-82
2023/10/27 05:17:21;;;;;;;15.85;9.75;;;;;;;8.30;100.00;98252.97;5052470;28;20040;-80
2023/10/27 05:19:49;;;;;;;16.95;11.05;;;;;;;8.26;100.00;98238.25;5052199;28;20474;-80
2023/10/27 05:22:19;;;;;;;26.00;11.98;;;;;;;8.37;100.00;98256.00;5052744;28;20032;-82
2023/10/27 05:24:45;;;;;;;20.33;12.32;;;;;;;8.34;100.00;98239.22;5051828;28;20128;-87
2023/10/27 05:27:12;;;;;;;22.48;11.93;;;;;;;8.44;100.00;98256.75;5059019;28;20047;-81
2023/10/27 05:29:43;;;;;;;24.33;12.98;;;;;;;8.15;100.00;98213.47;5058809;28;20119;-82
2023/10/27 05:32:12;;;;;;;19.13;10.27;;;;;;;8.48;100.00;98251.53;5053017;28;20497;-82
2023/10/27 05:34:40;;;;;;;18.27;10.07;;;;;;;8.49;100.00;98255.94;5052556;28;20029;-81
2023/10/27 05:37:10;;;;;;;15.35;9.60;;;;;;;8.48;100.00;98246.63;5052856;28;20029;-80
2023/10/27 05:39:39;;;;;;;22.17;9.65;;;;;;;8.46;100.00;98249.22;5059085;28;20033;-79
2023/10/27 05:42:05;;;;;;;19.17;10.32;;;;;;;8.47;100.00;98247.13;5061351;28;20035;-80
2023/10/27 05:44:34;;;;;;;17.63;10.07;;;;;;;8.51;100.00;98256.19;5060913;28;20048;-81
2023/10/27 05:47:01;;;;;;;20.45;10.63;;;;;;;8.47;100.00;98250.00;5060040;28;20097;-81
2023/10/27 05:49:27;;;;;;;15.60;9.50;;;;;;;8.52;100.00;98263.41;5056925;28;20040;-78
2023/10/27 05:52:02;;;;;;;15.27;9.85;;;;;;;8.51;100.00;98261.88;5039362;28;20037;-80
2023/10/27 05:54:30;;;;;;;16.27;8.63;;;;;;;8.55;100.00;98260.28;5057284;28;20071;-83
2023/10/27 05:56:55;;;;;;;16.77;8.82;;;;;;;8.54;100.00;98253.06;5040016;28;20036;-79
2023/10/27 05:59:21;;;;;;;15.00;8.73;;;;;;;8.55;100.00;98253.81;5056669;28;20040;-80
2023/10/27 06:01:54;;;;;;;23.23;10.13;;;;;;;8.62;100.00;98253.25;5055276;28;20144;-79
2023/10/27 06:04:21;;;;;;;16.20;9.50;;;;;;;8.58;100.00;98247.84;5057146;28;20033;-79
2023/10/27 06:06:48;;;;;;;14.25;8.57;;;;;;;8.63;100.00;98238.47;5056632;28;20028;-80
2023/10/27 06:09:15;;;;;;;17.83;8.40;;;;;;;8.68;100.00;98237.66;5054407;28;20037;-78
2023/10/27 06:11:41;;;;;;;18.27;9.23;;;;;;;8.69;100.00;98235.59;5056660;28;20067;-79
2023/10/27 06:14:08;;;;;;;20.15;10.20;;;;;;;8.70;100.00;98231.44;5057407;28;20024;-78
2023/10/27 06:16:34;;;;;;;20.80;9.10;;;;;;;8.72;100.00;98240.22;5056624;28;20017;-79
2023/10/27 06:18:59;;;;;;;14.45;9.02;;;;;;;8.74;100.00;98243.31;5038454;28;20470;-79
2023/10/27 06:21:25;;;;;;;15.40;9.38;;;;;;;8.75;100.00;98239.16;5055930;28;20470;-79
2023/10/27 06:23:52;;;;;;;19.52;9.43;;;;;;;8.78;100.00;98244.56;5056448;28;20112;-79
2023/10/27 06:26:17;;;;;;;15.43;9.45;;;;;;;8.81;100.00;98249.19;5056623;28;20118;-81
2023/10/27 06:28:42;;;;;;;15.15;8.68;;;;;;;8.88;100.00;98250.69;5055339;28;20082;-78
2023/10/27 06:31:10;;;;;;;21.92;8.88;;;;;;;8.86;100.00;98247.59;5053212;28;20458;-78
2023/10/27 06:33:36;;;;;;;19.33;9.82;;;;;;;8.97;100.00;98241.03;5055156;28;20482;-79
2023/10/27 06:36:02;;;;;;;17.48;10.35;;;;;;;9.01;100.00;98238.66;5055107;28;20070;-80
2023/10/27 06:38:30;;;;;;;22.45;10.30;;;;;;;9.05;100.00;98254.13;5054055;28;20116;-79
2023/10/27 06:40:55;;;;;;;20.48;9.52;;;;;;;9.09;100.00;98251.03;5055960;28;20485;-80
2023/10/27 06:43:22;;;;;;;23.73;10.45;;;;;;;9.15;100.00;98251.75;5072995;28;20033;-81
2023/10/27 06:45:47;;;;;;;23.42;10.07;;;;;;;9.18;100.00;98248.59;5059235;28;20040;-81
2023/10/27 06:48:12;;;;;;;18.60;9.82;;;;;;;9.24;100.00;98251.38;5060889;28;20053;-80
2023/10/27 06:50:38;;;;;;;21.27;11.85;;;;;;;9.27;100.00;98248.22;5058135;28;20470;-79
2023/10/27 06:53:04;;;;;;;16.20;9.80;;;;;;;9.35;100.00;98250.50;5055740;28;20124;-80
2023/10/27 06:55:31;;;;;;;16.08;9.63;;;;;;;9.40;100.00;98258.19;5055060;28;20547;-79
2023/10/27 06:57:59;;;;;;;17.42;10.07;;;;;;;9.47;100.00;98240.50;5038258;28;20146;-80
2023/10/27 07:00:26;;;;;;;18.63;9.90;;;;;;;9.56;100.00;98255.16;5039403;28;20051;-79
2023/10/27 07:02:52;;;;;;;17.05;10.20;;;;;;;9.59;100.00;98250.47;5055029;28;20304;-77
2023/10/27 07:05:18;;;;;;;14.07;9.20;;;;;;;9.73;100.00;98254.22;5054076;28;20036;-80
2023/10/27 07:07:45;;;;;;;16.23;10.48;;;;;;;9.75;100.00;98243.81;5055470;28;20061;-81
2023/10/27 07:10:13;;;;;;;19.35;9.45;;;;;;;9.85;100.00;98250.69;5055170;28;20479;-79
2023/10/27 07:12:39;;;;;;;16.65;9.07;;;;;;;9.90;100.00;98251.91;5059673;28;20102;-82
2023/10/27 07:15:05;;;;;;;17.30;10.00;;;;;;;9.94;100.00;98264.56;5059060;28;20517;-83
2023/10/27 07:17:31;;;;;;;24.85;11.77;;;;;;;9.99;100.00;98258.00;5056373;28;20060;-79
2023/10/27 07:19:57;;;;;;;23.50;12.45;;;;;;;10.02;100.00;98256.94;5055988;28;20102;-80
2023/10/27 07:22:25;;;;;;;19.90;13.10;;;;;;;10.06;100.00;98262.34;5055085;28;20028;-80
2023/10/27 07:24:51;;;;;;;32.78;13.73;;;;;;;10.12;100.00;98260.19;5054836;28;20052;-81
2023/10/27 07:27:18;;;;;;;19.45;11.32;;;;;;;10.17;100.00;98255.72;5054720;28;20029;-78
2023/10/27 07:29:46;;;;;;;16.45;11.10;;;;;;;10.19;100.00;98248.13;5055163;28;20029;-79
2023/10/27 07:32:14;;;;;;;14.77;9.60;;;;;;;10.26;100.00;98250.38;5054935;28;20025;-79
2023/10/27 07:34:39;;;;;;;20.17;10.00;;;;;;;10.29;100.00;98245.66;5054571;28;20047;-78
2023/10/27 07:37:06;;;;;;;18.70;9.70;;;;;;;10.21;100.00;98230.47;5054660;28;20458;-82
2023/10/27 07:39:35;;;;;;;16.05;9.82;;;;;;;10.33;100.00;98235.50;5054699;28;20035;-79
2023/10/27 07:42:03;;;;;;;17.00;9.60;;;;;;;10.37;100.00;98238.03;5054469;28;20060;-78
2023/10/27 07:44:34;;;;;;;17.85;10.55;;;;;;;10.42;100.00;98240.03;5054585;28;20047;-79
2023/10/27 07:47:01;;;;;;;18.30;10.35;;;;;;;10.46;100.00;98229.81;5054224;28;20049;-80
2023/10/27 07:49:27;;;;;;;20.48;9.98;;;;;;;10.48;100.00;98230.03;5054138;28;20086;-79
2023/10/27 07:51:52;;;;;;;17.38;10.38;;;;;;;10.49;100.00;98214.47;5052801;28;20041;-80
2023/10/27 07:54:19;;;;;;;19.23;9.95;;;;;;;10.65;100.00;98217.59;5052699;28;20025;-80
2023/10/27 07:56:44;;;;;;;27.85;10.60;;;;;;;10.69;100.00;98220.88;5036077;28;20033;-80
2023/10/27 07:59:11;;;;;;;19.70;10.95;;;;;;;10.82;100.00;98223.78;5054096;28;20477;-79
2023/10/27 08:01:36;;;;;;;29.98;10.80;;;;;;;10.74;100.00;98200.81;5053169;28;20111;-81
2023/10/27 08:04:05;;;;;;;23.33;12.15;;;;;;;10.93;100.00;98212.94;5054184;28;20500;-80
2023/10/27 08:06:32;;;;;;;19.15;10.90;;;;;;;11.01;100.00;98207.34;5052846;28;20047;-80
2023/10/27 08:09:01;;;;;;;22.00;11.15;;;;;;;11.09;100.00;98210.31;5053309;28;20063;-79
2023/10/27 08:11:27;;;;;;;30.65;11.55;;;;;;;11.16;100.00;98212.56;5052722;28;20062;-79
2023/10/27 08:13:53;;;;;;;20.88;11.40;;;;;;;11.22;100.00;98225.41;5054616;28;20032;-83
2023/10/27 08:16:21;;;;;;;22.63;10.40;;;;;;;11.29;100.00;98203.97;5054166;28;20032;-80
2023/10/27 08:18:52;;;;;;;21.17;11.07;;;;;;;11.30;100.00;98194.09;5053843;28;20052;-79
2023/10/27 08:21:18;;;;;;;18.75;10.80;;;;;;;11.43;100.00;98202.66;5054086;28;20033;-78
2023/10/27 08:23:45;;;;;;;25.08;10.32;;;;;;;11.49;100.00;98194.75;5053615;28;20029;-79
2023/10/27 08:26:12;;;;;;;19.25;9.73;;;;;;;11.61;100.00;98201.00;5053464;28;20057;-78
2023/10/27 08:28:37;;;;;;;13.07;9.52;;;;;;;11.68;100.00;98209.69;5053701;28;20033;-80
2023/10/27 08:31:03;;;;;;;17.10;10.20;;;;;;;11.73;100.00;98211.66;5053811;28;20433;-81
2023/10/27 08:33:29;;;;;;;14.88;8.63;;;;;;;11.79;100.00;98211.56;5053543;28;20029;-80
2023/10/27 08:36:14;;;;;;;19.65;8.77;;;;;;;11.88;100.00;98218.91;5053837;28;20098;-80
2023/10/27 08:38:43;;;;;;;19.80;9.75;;;;;;;11.94;100.00;98210.97;5053709;28;20024;-80
2023/10/27 08:41:09;;;;;;;22.40;8.65;;;;;;;12.03;100.00;98210.50;5053863;28;20028;-80
2023/10/27 08:43:37;;;;;;;18.63;9.88;;;;;;;12.05;100.00;98210.72;5036207;28;20116;-79
2023/10/27 08:46:07;;;;;;;16.65;8.93;;;;;;;11.96;100.00;98189.03;5052570;28;20029;-80
2023/10/27 08:48:32;;;;;;;19.63;10.32;;;;;;;12.18;100.00;98219.28;5036170;28;20033;-79
2023/10/27 08:51:04;;;;;;;22.13;10.75;;;;;;;12.18;100.00;98210.69;5053326;28;20078;-78
2023/10/27 08:53:30;;;;;;;17.08;10.32;;;;;;;12.15;100.00;98206.06;5035604;28;20032;-81
2023/10/27 08:56:02;;;;;;;17.20;9.95;;;;;;;12.21;100.00;98200.97;5053475;28;20029;-78
2023/10/27 08:58:29;;;;;;;18.92;8.93;;;;;;;12.15;100.00;98194.63;5052095;28;20033;-81
2023/10/27 09:00:57;;;;;;;20.25;9.82;;;;;;;12.16;100.00;98201.88;5052310;28;20035;-79
2023/10/27 09:03:22;;;;;;;13.95;9.77;;;;;;;12.17;100.00;98204.19;5053372;28;20108;-80
2023/10/27 09:05:48;;;;;;;15.65;10.20;;;;;;;12.25;100.00;98201.41;5053061;28;20531;-78
2023/10/27 09:08:18;;;;;;;17.13;9.07;;;;;;;12.26;100.00;98191.47;5051811;28;20055;-78
2023/10/27 09:10:46;;;;;;;16.27;9.00;;;;;;;12.27;100.00;98190.94;5053162;28;20048;-81
2023/10/27 09:13:20;;;;;;;14.63;9.13;;;;;;;12.36;100.00;98201.16;5053061;28;20024;-80
2023/10/27 09:15:50;;;;;;;14.98;8.82;;;;;;;12.43;100.00;98206.22;5053409;28;20151;-80
2023/10/27 09:18:18;;;;;;;15.05;8.55;;;;;;;12.45;100.00;98197.84;5054610;28;20056;-83
2023/10/27 09:20:52;;;;;;;19.95;9.82;;;;;;;12.53;100.00;98204.41;5058462;28;20043;-81
2023/10/27 09:23:17;;;;;;;15.90;9.25;;;;;;;12.55;100.00;98196.00;5058032;28;20382;-83
2023/10/27 09:25:43;;;;;;;15.93;8.45;;;;;;;12.49;100.00;98181.06;5058891;28;20481;-81
2023/10/27 09:28:11;;;;;;;20.05;9.90;;;;;;;12.52;100.00;98179.94;5057276;28;20021;-81
2023/10/27 09:30:58;;;;;;;14.40;9.02;;;;;;;12.68;100.00;98201.69;5057127;28;20145;-82
2023/10/27 09:33:26;;;;;;;15.65;9.43;;;;;;;12.66;100.00;98184.28;5056648;28;20043;-82
2023/10/27 09:35:54;;;;;;;16.90;10.65;;;;;;;12.75;100.00;98199.47;5056137;28;20025;-82
2023/10/27 09:38:22;;;;;;;16.92;10.25;;;;;;;12.81;100.00;98200.84;5055521;28;20462;-82
2023/10/27 09:40:49;;;;;;;14.23;9.55;;;;;;;12.87;100.00;98190.00;5038831;28;20028;-82
2023/10/27 09:43:24;;;;;;;18.75;9.70;;;;;;;12.83;100.00;98163.03;5056915;28;20029;-81
2023/10/27 09:46:01;;;;;;;16.30;10.00;;;;;;;13.03;100.00;98185.94;5056111;28;20100;-82
2023/10/27 09:48:30;;;;;;;16.00;9.82;;;;;;;13.05;100.00;98186.13;5056122;28;20048;-82
2023/10/27 09:51:06;;;;;;;16.75;9.77;;;;;;;13.07;100.00;98176.97;5056676;28;20123;-81
2023/10/27 09:53:33;;;;;;;17.63;10.05;;;;;;;13.09;100.00;98180.06;5061488;28;20341;-81
2023/10/27 09:56:00;;;;;;;15.15;10.05;;;;;;;13.11;100.00;98166.69;5060695;28;20031;-83
2023/10/27 09:58:30;;;;;;;14.63;8.77;;;;;;;13.13;100.00;98169.00;5061267;28;20100;-80
2023/10/27 10:01:11;;;;;;;17.27;9.57;;;;;;;13.14;100.00;98162.69;5059536;28;20029;-82
2023/10/27 10:03:43;;;;;;;15.07;8.68;;;;;;;13.13;100.00;98157.53;5057439;28;20078;-82
2023/10/27 10:06:15;;;;;;;12.30;8.82;;;;;;;13.20;100.00;98156.03;5056007;28;20033;-84
2023/10/27 10:09:14;;;;;;;21.25;11.38;;;;;;;13.26;100.00;98166.00;5057171;28;20477;-81
2023/10/27 10:11:55;;;;;;;23.55;11.40;;;;;;;13.27;100.00;98153.22;5056139;28;20053;-82
2023/10/27 10:14:39;;;;;;;17.23;10.70;;;;;;;13.35;100.00;98158.97;5058142;28;20021;-83
2023/10/27 10:17:06;;;;;;;21.85;10.70;;;;;;;13.37;100.00;98153.47;5057638;28;20017;-83
2023/10/27 10:19:55;;;;;;;23.45;10.77;;;;;;;13.40;100.00;98158.06;5056908;28;20024;-82
2023/10/27 10:22:41;;;;;;;19.80;9.75;;;;;;;13.40;100.00;98155.97;5056790;28;20063;-82
2023/10/27 10:25:24;;;;;;;29.52;13.57;;;;;;;13.42;100.00;98161.13;5057137;28;20017;-82
2023/10/27 10:28:10;;;;;;;22.67;12.10;;;;;;;13.42;100.00;98150.44;5057083;28;20056;-82
2023/10/27 10:31:06;;;;;;;34.33;14.60;;;;;;;13.43;100.00;98151.22;5055454;28;20033;-85
2023/10/27 10:33:44;;;;;;;29.10;13.00;;;;;;;13.47;100.00;98137.25;5056280;28;20056;-83
2023/10/27 10:36:25;;;;;;;21.45;10.32;;;;;;;13.52;100.00;98145.75;5057112;28;20055;-82
2023/10/27 10:39:17;;;;;;;20.67;9.60;;;;;;;13.53;100.00;98147.28;5057031;28;20025;-84
2023/10/27 10:41:43;;;;;;;21.23;10.52;;;;;;;13.60;100.00;98142.13;5056915;28;20021;-82
2023/10/27 10:44:12;;;;;;;16.70;9.07;;;;;;;13.65;100.00;98138.31;5056414;28;20128;-83
2023/10/27 10:46:44;;;;;;;17.52;8.80;;;;;;;13.72;100.00;98135.50;5054428;28;20045;-83
2023/10/27 10:49:31;;;;;;;17.35;9.70;;;;;;;13.75;100.00;98133.56;5056353;28;20037;-82
2023/10/27 10:51:58;;;;;;;15.40;8.73;;;;;;;13.79;100.00;98131.09;5056943;28;20028;-81
2023/10/27 10:54:32;;;;;;;15.40;8.75;;;;;;;13.82;100.00;98130.75;5056801;28;20020;-82
2023/10/27 10:57:12;;;;;;;16.17;8.70;;;;;;;13.82;100.00;98124.25;5055257;28;20096;-82
2023/10/27 10:59:37;;;;;;;18.65;10.15;;;;;;;13.79;100.00;98123.25;5055200;28;20021;-82
2023/10/27 11:02:04;;;;;;;19.23;9.52;;;;;;;13.75;100.00;98125.75;5056244;28;20378;-83
2023/10/27 11:04:32;;;;;;;19.15;10.73;;;;;;;13.73;100.00;98113.31;5050044;28;20600;-83
2023/10/27 11:07:00;;;;;;;13.65;9.27;;;;;;;13.71;100.00;98111.00;5054625;28;20042;-81
2023/10/27 11:09:28;;;;;;;17.27;9.95;;;;;;;13.70;100.00;98123.81;5055256;28;20045;-81
2023/10/27 11:11:55;;;;;;;13.77;9.13;;;;;;;13.68;100.00;98111.38;5054698;28;20045;-82
2023/10/27 11:14:22;;;;;;;16.42;9.63;;;;;;;13.65;100.00;98112.50;5055472;28;20394;-83
2023/10/27 11:17:00;;;;;;;13.65;9.75;;;;;;;13.64;100.00;98116.72;5055674;28;20025;-82
2023/10/27 11:19:26;;;;;;;12.68;8.63;;;;;;;13.61;100.00;98115.72;5054326;28;20524;-83
2023/10/27 11:21:53;;;;;;;13.65;7.65;;;;;;;13.61;100.00;98121.47;5056367;28;20044;-82
2023/10/27 11:24:20;;;;;;;14.45;8.77;;;;;;;13.61;100.00;98124.34;5055354;28;20060;-83